Time;durP1;ratioP1;P1;durP2;ratioP2;P2;SDS_P1;SDS_P2;PMS_P1;PMS_P2;Temp;Humidity;BMP_temperature;BMP_pressure;BME280_temperature;BME280_humidity;BME280_pressure;Samples;Min_cycle;Max_cycle;Signal;HPM_P1;HPM_P2
2022/01/05 00:02:27;;;;;;;45.60;29.63;;;20.20;90.40;;;;;;1932874;74;21178;-81
2022/01/05 00:04:59;;;;;;;45.70;30.82;;;20.20;90.50;;;;;;1929335;73;21677;-82
2022/01/05 00:07:29;;;;;;;49.85;32.30;;;20.30;90.40;;;;;;1856411;75;21677;-82
2022/01/05 00:10:00;;;;;;;46.45;33.13;;;20.30;90.30;;;;;;1899635;74;21170;-82
2022/01/05 00:12:31;;;;;;;45.88;31.80;;;20.40;90.20;;;;;;1891445;74;21139;-81
2022/01/05 00:15:02;;;;;;;50.88;34.18;;;20.40;90.20;;;;;;1898882;75;21558;-83
2022/01/05 00:17:33;;;;;;;49.15;34.50;;;20.40;90.20;;;;;;1878347;75;21247;-83
2022/01/05 00:20:06;;;;;;;50.15;34.83;;;20.50;90.30;;;;;;1911165;75;21190;-81
2022/01/05 00:22:37;;;;;;;49.73;34.65;;;20.50;90.20;;;;;;1899662;75;21087;-82
2022/01/05 00:25:08;;;;;;;75.03;38.35;;;20.40;90.10;;;;;;1889484;75;21135;-82
2022/01/05 00:27:39;;;;;;;75.45;34.88;;;20.40;90.10;;;;;;1919061;73;21225;-82
2022/01/05 00:30:11;;;;;;;59.63;36.80;;;20.50;90.20;;;;;;1892634;73;21563;-82
2022/01/05 00:32:41;;;;;;;56.25;34.88;;;20.40;90.30;;;;;;1906588;74;21132;-82
2022/01/05 00:35:12;;;;;;;53.50;35.05;;;20.50;90.40;;;;;;1877689;75;21181;-82
2022/01/05 00:37:43;;;;;;;52.13;35.50;;;20.50;90.40;;;;;;1902886;75;21241;-83
2022/01/05 00:40:14;;;;;;;54.88;34.33;;;20.50;90.40;;;;;;1920595;73;21151;-83
2022/01/05 00:42:45;;;;;;;53.83;36.48;;;20.60;90.40;;;;;;1923921;72;21204;-83
2022/01/05 00:45:17;;;;;;;45.85;31.62;;;20.60;90.10;;;;;;1940109;73;21150;-82
2022/01/05 00:47:48;;;;;;;52.58;34.03;;;20.70;89.90;;;;;;1952286;72;21162;-84
2022/01/05 00:50:18;;;;;;;46.85;31.95;;;20.80;89.70;;;;;;1946969;72;21138;-82
2022/01/05 00:52:49;;;;;;;41.23;25.23;;;20.90;89.40;;;;;;1939246;72;21269;-82
2022/01/05 00:55:20;;;;;;;27.48;20.27;;;21.00;88.50;;;;;;1908555;74;21643;-82
2022/01/05 00:57:52;;;;;;;40.15;24.47;;;21.20;88.60;;;;;;1848095;76;21123;-82
2022/01/05 01:00:22;;;;;;;32.30;22.40;;;21.30;88.60;;;;;;1859074;75;21271;-83
2022/01/05 01:02:53;;;;;;;27.58;20.72;;;21.30;88.20;;;;;;1842143;76;21275;-83
2022/01/05 01:05:24;;;;;;;28.80;19.12;;;21.40;87.90;;;;;;1892260;75;21212;-83
2022/01/05 01:07:55;;;;;;;29.48;19.05;;;21.50;87.80;;;;;;1907489;75;21163;-83
2022/01/05 01:10:26;;;;;;;25.52;18.30;;;21.60;87.50;;;;;;1885949;73;21151;-84
2022/01/05 01:12:57;;;;;;;26.45;18.90;;;21.70;87.20;;;;;;1906420;74;21155;-84
2022/01/05 01:15:28;;;;;;;28.52;18.15;;;21.80;87.00;;;;;;1961635;72;21178;-85
2022/01/05 01:17:59;;;;;;;25.12;17.57;;;21.90;86.30;;;;;;1904474;74;21160;-83
2022/01/05 01:20:29;;;;;;;23.35;16.42;;;21.90;86.20;;;;;;1875389;75;21200;-83
2022/01/05 01:23:00;;;;;;;26.17;22.35;;;22.00;86.10;;;;;;1950706;73;21174;-84
2022/01/05 01:25:31;;;;;;;23.00;16.25;;;22.00;86.30;;;;;;1917665;72;21142;-83
2022/01/05 01:28:06;;;;;;;25.08;15.13;;;22.10;85.80;;;;;;1925335;72;21702;-83
2022/01/05 01:30:35;;;;;;;21.40;14.95;;;22.10;85.90;;;;;;1929493;72;21102;-83
2022/01/05 01:33:06;;;;;;;19.50;14.25;;;22.20;85.60;;;;;;1932671;72;21346;-83
2022/01/05 01:35:37;;;;;;;22.62;14.23;;;22.20;84.90;;;;;;1921346;73;21721;-82
2022/01/05 01:38:08;;;;;;;23.83;13.15;;;22.30;85.30;;;;;;1915883;72;21644;-85
2022/01/05 01:40:39;;;;;;;20.55;13.40;;;22.30;85.10;;;;;;1933575;72;21733;-85
2022/01/05 01:43:09;;;;;;;19.98;13.58;;;22.50;85.30;;;;;;1908483;73;21605;-85
2022/01/05 01:45:40;;;;;;;18.77;12.43;;;22.50;85.10;;;;;;1937565;72;21149;-85
2022/01/05 01:48:11;;;;;;;17.87;11.97;;;22.60;84.80;;;;;;1899164;74;21175;-85
2022/01/05 01:50:41;;;;;;;21.93;12.37;;;22.60;84.50;;;;;;1854823;76;21163;-84
2022/01/05 01:53:13;;;;;;;17.85;12.35;;;22.70;84.30;;;;;;1887412;75;21272;-85
2022/01/05 01:55:44;;;;;;;16.93;11.20;;;22.80;84.00;;;;;;1868727;75;21635;-85
2022/01/05 01:58:15;;;;;;;16.27;11.03;;;22.80;83.90;;;;;;1875042;75;21197;-83
2022/01/05 02:00:46;;;;;;;19.73;10.03;;;22.90;83.80;;;;;;1865348;75;21530;-85
2022/01/05 02:03:16;;;;;;;13.60;9.83;;;22.90;83.40;;;;;;1944379;72;21184;-84
2022/01/05 02:05:47;;;;;;;14.55;9.80;;;23.00;83.20;;;;;;1928550;72;21236;-85
2022/01/05 02:08:18;;;;;;;13.03;9.48;;;23.00;83.30;;;;;;1938426;72;21633;-85
2022/01/05 02:10:49;;;;;;;15.75;9.08;;;23.00;82.90;;;;;;1943659;72;21184;-85
2022/01/05 02:13:20;;;;;;;14.50;7.83;;;23.00;82.90;;;;;;1897884;73;21170;-84
2022/01/05 02:15:51;;;;;;;15.72;8.68;;;23.10;82.60;;;;;;1879335;75;21072;-85
2022/01/05 02:20:56;;;;;;;12.73;7.95;;;23.20;82.40;;;;;;1883891;75;21308;-84
2022/01/05 02:23:28;;;;;;;9.95;7.97;;;23.30;82.10;;;;;;1891885;74;21134;-83
2022/01/05 02:25:59;;;;;;;15.95;8.05;;;23.30;81.90;;;;;;1866465;75;21556;-83
2022/01/05 02:28:30;;;;;;;12.98;8.70;;;23.30;81.80;;;;;;1890525;74;21172;-83
2022/01/05 02:31:03;;;;;;;14.25;9.30;;;23.40;81.60;;;;;;1867053;75;21073;-86
2022/01/05 02:33:33;;;;;;;13.50;9.08;;;23.40;81.40;;;;;;1864920;75;21094;-85
2022/01/05 02:36:05;;;;;;;14.87;7.78;;;23.50;81.20;;;;;;1874617;75;21667;-86
2022/01/05 02:38:36;;;;;;;14.05;8.78;;;23.50;81.10;;;;;;1874021;75;21258;-85
2022/01/05 02:41:09;;;;;;;14.33;9.40;;;23.60;81.10;;;;;;1929167;72;21111;-82
2022/01/05 02:43:42;;;;;;;14.05;9.98;;;23.70;80.80;;;;;;1942462;72;21127;-86
2022/01/05 02:46:15;;;;;;;15.95;9.85;;;23.70;80.50;;;;;;1926306;72;21162;-84
2022/01/05 02:48:48;;;;;;;14.83;9.30;;;23.70;80.50;;;;;;1932788;72;21180;-85
2022/01/05 02:51:19;;;;;;;16.20;9.53;;;23.70;80.50;;;;;;1940661;72;21679;-85
2022/01/05 02:53:50;;;;;;;17.05;9.50;;;23.80;80.50;;;;;;1922845;72;21133;-87
2022/01/05 02:56:21;;;;;;;15.10;9.03;;;23.80;80.40;;;;;;1898721;75;21084;-86
2022/01/05 02:58:51;;;;;;;12.45;8.63;;;23.80;80.20;;;;;;1891235;74;21139;-85
2022/01/05 03:01:22;;;;;;;14.53;9.05;;;23.90;80.00;;;;;;1840251;76;21772;-85
2022/01/05 03:03:53;;;;;;;12.82;9.58;;;23.90;79.60;;;;;;1927704;72;21135;-85
2022/01/05 03:06:24;;;;;;;14.33;8.23;;;24.00;79.60;;;;;;1931021;72;21136;-86
2022/01/05 03:08:55;;;;;;;11.57;6.97;;;24.00;79.50;;;;;;1947469;72;21158;-84
2022/01/05 03:11:25;;;;;;;9.35;6.78;;;24.10;79.00;;;;;;1942882;72;21550;-85
2022/01/05 03:13:57;;;;;;;13.15;7.55;;;24.20;78.70;;;;;;1949294;72;21270;-85
2022/01/05 03:16:29;;;;;;;8.63;6.50;;;24.30;78.50;;;;;;1938038;73;21177;-85
2022/01/05 03:19:01;;;;;;;10.40;5.90;;;24.30;78.00;;;;;;1920498;72;21060;-84
2022/01/05 03:21:35;;;;;;;7.72;5.87;;;24.40;77.90;;;;;;1911724;73;21123;-84
2022/01/05 03:24:11;;;;;;;8.85;6.35;;;24.40;77.60;;;;;;1916598;72;22085;-83
2022/01/05 03:26:46;;;;;;;11.30;6.33;;;24.50;77.40;;;;;;1940184;72;21109;-85
2022/01/05 03:29:14;;;;;;;10.60;5.92;;;24.60;77.30;;;;;;1961398;72;21111;-84
2022/01/05 03:31:45;;;;;;;9.38;6.03;;;24.60;77.00;;;;;;1962522;72;21076;-84
2022/01/05 03:34:20;;;;;;;9.28;5.80;;;24.70;76.50;;;;;;1952154;73;21134;-84
2022/01/05 03:36:51;;;;;;;11.70;6.40;;;24.80;76.40;;;;;;1947216;72;21634;-84
2022/01/05 03:39:22;;;;;;;9.45;6.28;;;24.90;75.60;;;;;;1939538;71;21095;-83
2022/01/05 03:41:53;;;;;;;12.35;6.95;;;25.00;75.60;;;;;;1996678;70;21127;-83
2022/01/05 03:44:27;;;;;;;11.65;7.60;;;25.10;75.30;;;;;;1943141;71;21359;-85
2022/01/05 03:46:58;;;;;;;13.75;7.80;;;25.20;75.00;;;;;;1927186;73;21586;-84
2022/01/05 03:49:39;;;;;;;12.63;6.60;;;25.30;74.80;;;;;;1946380;73;21302;-84
2022/01/05 03:52:32;;;;;;;9.33;5.60;;;25.30;73.70;;;;;;1891910;73;21145;-84
2022/01/05 03:55:14;;;;;;;11.80;6.65;;;25.50;73.70;;;;;;1952586;72;21170;-86
2022/01/05 03:57:45;;;;;;;9.70;6.62;;;25.60;73.40;;;;;;1988529;72;21592;-84
2022/01/05 04:00:16;;;;;;;12.60;7.30;;;25.80;72.20;;;;;;1979360;72;21228;-87
2022/01/05 04:02:48;;;;;;;10.45;6.80;;;25.90;71.80;;;;;;1923145;71;21127;-83
2022/01/05 04:05:23;;;;;;;10.23;7.15;;;26.00;71.70;;;;;;1925185;73;21651;-84
2022/01/05 04:07:58;;;;;;;10.72;7.60;;;26.10;71.20;;;;;;1910195;72;21213;-85
2022/01/05 04:10:26;;;;;;;11.97;7.30;;;26.20;70.30;;;;;;1943048;71;21601;-84
2022/01/05 04:12:57;;;;;;;13.08;7.55;;;26.30;70.20;;;;;;1941703;72;21108;-84
2022/01/05 04:15:28;;;;;;;11.00;7.25;;;26.40;70.50;;;;;;1910166;74;21207;-85
2022/01/05 04:17:59;;;;;;;10.85;7.62;;;26.50;70.20;;;;;;1939089;72;21153;-84
2022/01/05 04:20:30;;;;;;;12.95;8.63;;;26.60;69.60;;;;;;1919771;72;21228;-84
2022/01/05 04:23:01;;;;;;;11.65;8.43;;;26.70;69.40;;;;;;1909227;74;21602;-86
2022/01/05 04:25:33;;;;;;;27.70;9.85;;;26.80;67.50;;;;;;1909216;75;21131;-84
2022/01/05 04:28:05;;;;;;;17.15;8.63;;;26.90;67.80;;;;;;1911898;75;21143;-82
2022/01/05 04:30:36;;;;;;;13.75;7.97;;;27.10;66.80;;;;;;1915782;74;21143;-84
2022/01/05 04:33:06;;;;;;;13.22;8.53;;;27.10;66.80;;;;;;1871750;74;21202;-84
2022/01/05 04:35:38;;;;;;;16.02;9.38;;;27.20;66.90;;;;;;1886624;72;21578;-84
2022/01/05 04:38:12;;;;;;;14.13;8.88;;;27.30;67.00;;;;;;1912215;73;21135;-84
2022/01/05 04:40:44;;;;;;;15.43;9.05;;;27.40;65.40;;;;;;1910625;75;21205;-83
2022/01/05 04:43:15;;;;;;;17.75;9.08;;;27.50;65.10;;;;;;1910299;74;21153;-83
2022/01/05 04:45:46;;;;;;;11.60;8.53;;;27.60;66.00;;;;;;1896517;74;21121;-86
2022/01/05 04:48:17;;;;;;;12.68;7.83;;;27.70;65.50;;;;;;1875234;75;21167;-85
2022/01/05 04:50:50;;;;;;;11.73;7.28;;;27.80;64.60;;;;;;1904932;73;21654;-84
2022/01/05 04:53:21;;;;;;;12.03;7.75;;;27.90;62.50;;;;;;1897508;74;21590;-85
2022/01/05 04:55:53;;;;;;;11.00;6.90;;;27.90;62.00;;;;;;1913266;74;21672;-84
2022/01/05 04:58:25;;;;;;;9.85;6.22;;;28.00;61.50;;;;;;1906845;75;21122;-85
2022/01/05 05:00:56;;;;;;;10.38;6.83;;;28.00;61.60;;;;;;1899727;74;21703;-85
2022/01/05 05:03:27;;;;;;;10.58;6.80;;;28.10;60.80;;;;;;1908870;73;21112;-84
2022/01/05 05:05:58;;;;;;;11.73;7.15;;;28.10;61.80;;;;;;1911123;74;21189;-85
2022/01/05 05:08:29;;;;;;;13.68;7.53;;;28.20;62.60;;;;;;1900099;73;21564;-85
2022/01/05 05:11:00;;;;;;;12.10;6.85;;;28.30;61.70;;;;;;1889283;74;21663;-84
2022/01/05 05:13:31;;;;;;;11.55;6.95;;;28.40;61.00;;;;;;1861567;75;21181;-72
2022/01/05 05:16:02;;;;;;;14.80;8.30;;;28.40;59.50;;;;;;1923816;73;21619;-70
2022/01/05 05:18:33;;;;;;;14.28;7.83;;;28.50;58.90;;;;;;1929050;72;21118;-70
2022/01/05 05:21:04;;;;;;;14.73;8.63;;;28.60;59.20;;;;;;1952445;72;21110;-70
2022/01/05 05:23:35;;;;;;;11.28;7.35;;;28.60;59.30;;;;;;1928977;72;21836;-71
2022/01/05 05:26:06;;;;;;;11.45;6.92;;;28.70;59.10;;;;;;1934444;72;21495;-71
2022/01/05 05:28:37;;;;;;;9.33;6.33;;;28.80;59.30;;;;;;1912100;73;21142;-72
2022/01/05 05:31:08;;;;;;;13.15;7.53;;;28.90;58.40;;;;;;1883928;75;21139;-71
2022/01/05 05:33:39;;;;;;;13.25;8.25;;;28.90;58.10;;;;;;1864999;76;21701;-71
2022/01/05 05:36:10;;;;;;;11.38;7.28;;;28.90;58.00;;;;;;1924542;73;21163;-71
2022/01/05 05:38:41;;;;;;;13.70;7.70;;;29.00;58.20;;;;;;1911638;74;21721;-71
2022/01/05 05:41:12;;;;;;;11.12;7.70;;;29.10;57.10;;;;;;1927440;73;21229;-71
2022/01/05 05:43:42;;;;;;;11.73;7.55;;;29.10;57.70;;;;;;1920154;73;21165;-70
2022/01/05 05:46:13;;;;;;;12.07;7.78;;;29.00;56.90;;;;;;1912080;74;21130;-71
2022/01/05 05:48:45;;;;;;;13.53;7.97;;;29.10;56.70;;;;;;1943123;73;21841;-72
2022/01/05 05:51:16;;;;;;;12.53;8.03;;;29.20;57.10;;;;;;1923421;73;21700;-72
2022/01/05 05:53:47;;;;;;;11.15;8.00;;;29.20;56.90;;;;;;1934092;73;21607;-72
2022/01/05 05:56:18;;;;;;;11.40;7.70;;;29.20;56.50;;;;;;1943505;73;21115;-72
2022/01/05 05:58:49;;;;;;;12.20;7.45;;;29.30;56.10;;;;;;1922354;73;21106;-72
2022/01/05 06:01:19;;;;;;;11.03;7.70;;;29.40;55.70;;;;;;1931559;73;21178;-72
2022/01/05 06:03:50;;;;;;;10.75;7.70;;;29.40;55.40;;;;;;1919436;73;21137;-72
2022/01/05 06:06:21;;;;;;;17.52;7.92;;;29.50;56.90;;;;;;1935943;73;21224;-72
2022/01/05 06:08:52;;;;;;;20.92;8.83;;;29.50;56.80;;;;;;1943391;73;21096;-72
2022/01/05 06:11:23;;;;;;;12.13;7.25;;;29.60;55.00;;;;;;1926478;73;21176;-72
2022/01/05 06:13:54;;;;;;;12.58;8.40;;;29.60;55.10;;;;;;1925779;73;21172;-71
2022/01/05 06:16:25;;;;;;;13.32;7.90;;;29.70;54.80;;;;;;1902357;73;21156;-72
2022/01/05 06:18:55;;;;;;;9.90;7.72;;;29.80;53.90;;;;;;1918961;73;21165;-72
2022/01/05 06:21:27;;;;;;;13.20;8.20;;;29.70;54.50;;;;;;1928270;73;21747;-72
2022/01/05 06:23:58;;;;;;;14.30;8.05;;;29.70;53.90;;;;;;1910328;73;21181;-72
2022/01/05 06:26:29;;;;;;;11.43;7.62;;;29.70;54.10;;;;;;1881769;75;21132;-72
2022/01/05 06:29:00;;;;;;;10.72;7.83;;;29.70;54.00;;;;;;1914165;73;21205;-71
2022/01/05 06:31:31;;;;;;;11.85;8.10;;;29.70;54.30;;;;;;1919990;73;21185;-72
2022/01/05 06:34:02;;;;;;;11.80;7.85;;;29.70;54.40;;;;;;1903344;74;21660;-72
2022/01/05 06:36:33;;;;;;;9.60;7.28;;;29.70;53.90;;;;;;1921203;73;21131;-72
2022/01/05 06:39:05;;;;;;;12.95;8.05;;;29.60;54.30;;;;;;1926735;73;21707;-71
2022/01/05 06:41:35;;;;;;;10.45;6.50;;;29.60;53.50;;;;;;1927729;73;21205;-73
2022/01/05 06:44:08;;;;;;;9.78;7.42;;;29.60;53.80;;;;;;1931180;73;21099;-73
2022/01/05 06:46:38;;;;;;;14.93;8.50;;;29.60;53.70;;;;;;1913015;73;21682;-73
2022/01/05 06:49:09;;;;;;;9.60;7.10;;;29.70;53.30;;;;;;1919217;73;21637;-73
2022/01/05 06:51:40;;;;;;;12.85;8.05;;;29.70;54.20;;;;;;1922174;74;21114;-73
2022/01/05 06:54:11;;;;;;;14.20;8.45;;;29.80;54.90;;;;;;1915121;73;21274;-73
2022/01/05 06:56:42;;;;;;;14.33;8.40;;;29.80;54.30;;;;;;1915749;73;21127;-72
2022/01/05 06:59:13;;;;;;;19.12;8.65;;;29.90;52.90;;;;;;1906050;73;21118;-73
2022/01/05 07:01:44;;;;;;;12.25;8.53;;;29.90;53.30;;;;;;1920750;73;21209;-72
2022/01/05 07:04:15;;;;;;;12.60;7.90;;;29.90;52.80;;;;;;1921935;73;21212;-71
2022/01/05 07:06:45;;;;;;;12.25;8.25;;;30.00;53.40;;;;;;1916859;74;21124;-71
2022/01/05 07:09:16;;;;;;;13.28;8.10;;;29.90;53.30;;;;;;1925131;73;21083;-70
2022/01/05 07:11:47;;;;;;;11.68;7.22;;;29.80;53.10;;;;;;1907550;73;21691;-71
2022/01/05 07:14:18;;;;;;;14.40;9.00;;;29.80;53.50;;;;;;1901856;73;21182;-71
2022/01/05 07:16:49;;;;;;;23.22;10.20;;;29.80;53.30;;;;;;1919688;73;21529;-73
2022/01/05 07:19:20;;;;;;;15.38;8.48;;;29.70;52.80;;;;;;1922819;73;21303;-70
2022/01/05 07:21:51;;;;;;;13.68;8.45;;;29.80;52.80;;;;;;1915238;73;21607;-70
2022/01/05 07:24:22;;;;;;;18.25;9.48;;;29.80;52.80;;;;;;1907200;73;21056;-71
2022/01/05 07:26:52;;;;;;;10.82;7.75;;;29.70;52.50;;;;;;1855689;75;21130;-71
2022/01/05 07:29:23;;;;;;;10.32;7.53;;;29.70;52.60;;;;;;1915698;74;21087;-71
2022/01/05 07:31:54;;;;;;;12.78;8.53;;;29.70;52.80;;;;;;1933206;73;21160;-71
2022/01/05 07:34:25;;;;;;;11.05;8.60;;;29.60;52.60;;;;;;1925216;73;21142;-71
2022/01/05 07:36:56;;;;;;;10.05;7.95;;;29.60;52.20;;;;;;1906322;74;21408;-72
2022/01/05 07:39:27;;;;;;;11.55;8.20;;;29.60;52.10;;;;;;1929942;73;21674;-73
2022/01/05 07:41:58;;;;;;;12.00;8.48;;;29.60;53.00;;;;;;1918259;74;21578;-73
2022/01/05 07:44:29;;;;;;;11.00;7.70;;;29.70;53.70;;;;;;1882341;74;22011;-72
2022/01/05 07:47:00;;;;;;;14.87;8.03;;;29.70;52.60;;;;;;1882222;75;21080;-72
2022/01/05 07:49:31;;;;;;;11.12;8.10;;;29.70;52.60;;;;;;1937405;73;21669;-72
2022/01/05 07:52:02;;;;;;;12.65;7.95;;;29.70;52.80;;;;;;1911483;73;21167;-72
2022/01/05 07:54:34;;;;;;;10.60;8.00;;;29.70;53.30;;;;;;1927306;73;21226;-71
2022/01/05 07:57:06;;;;;;;12.37;7.08;;;29.70;52.60;;;;;;1916175;73;21197;-72
2022/01/05 07:59:36;;;;;;;12.47;7.90;;;29.70;52.50;;;;;;1936661;73;21061;-72
2022/01/05 08:02:08;;;;;;;13.20;7.90;;;29.70;51.00;;;;;;1916339;73;22300;-72
2022/01/05 08:04:39;;;;;;;10.25;7.85;;;29.70;53.00;;;;;;1915043;73;21095;-72
2022/01/05 08:07:13;;;;;;;9.93;8.18;;;29.80;52.30;;;;;;1909249;73;21579;-72
2022/01/05 08:09:44;;;;;;;10.88;8.30;;;29.80;51.50;;;;;;1919421;74;21150;-72
2022/01/05 08:12:15;;;;;;;11.43;7.53;;;29.90;53.80;;;;;;1912284;73;21141;-71
2022/01/05 08:14:46;;;;;;;10.48;7.87;;;29.90;52.40;;;;;;1931210;73;21219;-72
2022/01/05 08:17:18;;;;;;;12.50;7.55;;;29.80;51.50;;;;;;1912548;73;21684;-71
2022/01/05 08:19:49;;;;;;;9.48;7.10;;;29.80;52.40;;;;;;1911406;73;21536;-73
2022/01/05 08:22:20;;;;;;;10.80;7.45;;;29.80;52.40;;;;;;1945628;73;21602;-73
2022/01/05 08:24:51;;;;;;;10.50;7.92;;;29.80;52.20;;;;;;1916850;73;21229;-72
2022/01/05 08:27:23;;;;;;;14.03;8.73;;;29.70;52.80;;;;;;1921909;73;21092;-71
2022/01/05 08:29:54;;;;;;;14.60;8.90;;;29.60;52.30;;;;;;1925573;73;21194;-70
2022/01/05 08:32:24;;;;;;;19.10;9.35;;;29.60;52.30;;;;;;1910163;73;21080;-70
2022/01/05 08:34:55;;;;;;;12.20;8.55;;;29.60;52.60;;;;;;1905365;73;21201;-70
2022/01/05 08:37:26;;;;;;;12.98;8.38;;;29.60;53.10;;;;;;1901825;74;21271;-70
2022/01/05 08:39:57;;;;;;;10.43;8.03;;;29.60;52.80;;;;;;1925996;73;21532;-69
2022/01/05 08:42:27;;;;;;;10.13;7.87;;;29.60;52.50;;;;;;1917994;73;21248;-69
2022/01/05 08:44:59;;;;;;;9.30;7.35;;;29.50;52.10;;;;;;1916147;73;21680;-68
2022/01/05 08:47:30;;;;;;;12.45;8.20;;;29.50;51.30;;;;;;1916839;73;21112;-69
2022/01/05 08:50:01;;;;;;;13.68;8.35;;;29.50;50.70;;;;;;1919540;73;21143;-69
2022/01/05 08:52:32;;;;;;;15.43;10.38;;;29.60;50.50;;;;;;1930067;73;21072;-71
2022/01/05 08:55:03;;;;;;;11.33;8.55;;;29.60;51.00;;;;;;1922944;73;21112;-72
2022/01/05 08:57:34;;;;;;;13.78;8.28;;;29.60;50.80;;;;;;1885896;73;21783;-72
2022/01/05 09:00:07;;;;;;;12.03;9.70;;;29.60;50.40;;;;;;1918294;73;21083;-72
2022/01/05 09:02:38;;;;;;;11.10;8.38;;;29.60;50.50;;;;;;1900857;73;21203;-71
2022/01/05 09:05:10;;;;;;;17.07;9.40;;;29.60;50.00;;;;;;1892311;73;21729;-70
2022/01/05 09:07:41;;;;;;;13.75;7.85;;;29.50;50.90;;;;;;1918928;73;21578;-70
2022/01/05 09:10:12;;;;;;;10.40;7.78;;;29.50;49.90;;;;;;1915252;74;21171;-70
2022/01/05 09:12:43;;;;;;;11.40;6.92;;;29.50;50.50;;;;;;1914737;73;21131;-70
2022/01/05 09:15:13;;;;;;;12.47;6.78;;;29.50;49.60;;;;;;1918407;73;21609;-71
2022/01/05 09:17:44;;;;;;;10.08;7.17;;;29.50;49.80;;;;;;1925476;73;21567;-70
2022/01/05 09:20:15;;;;;;;9.48;7.05;;;29.50;49.50;;;;;;1905618;74;21064;-69
2022/01/05 09:22:45;;;;;;;12.65;7.72;;;29.50;50.10;;;;;;1909157;74;21171;-71
2022/01/05 09:25:18;;;;;;;11.40;7.17;;;29.50;50.30;;;;;;1914422;74;21676;-71
2022/01/05 09:27:49;;;;;;;10.45;7.15;;;29.40;49.80;;;;;;1934491;73;21543;-71
2022/01/05 09:30:23;;;;;;;9.00;7.28;;;29.40;49.10;;;;;;1928379;73;21614;-69
2022/01/05 09:32:55;;;;;;;11.12;7.83;;;29.40;48.80;;;;;;1924329;73;21419;-69
2022/01/05 09:35:26;;;;;;;11.55;7.55;;;29.40;49.00;;;;;;1910069;73;21131;-70
2022/01/05 09:43:04;;;;;;;9.55;7.50;;;29.40;48.60;;;;;;1910882;73;21177;-71
2022/01/05 09:45:38;;;;;;;10.10;7.08;;;29.30;48.20;;;;;;1921736;73;21191;-71
2022/01/05 09:48:12;;;;;;;11.50;7.70;;;29.30;48.60;;;;;;1905574;74;21603;-70
2022/01/05 09:50:45;;;;;;;16.82;8.20;;;29.30;48.30;;;;;;1895192;73;21215;-69
2022/01/05 09:53:17;;;;;;;12.10;9.25;;;29.20;48.00;;;;;;1899928;73;21512;-69
2022/01/05 09:55:51;;;;;;;11.95;6.97;;;29.20;48.20;;;;;;1914389;73;22173;-71
2022/01/05 09:58:23;;;;;;;15.40;9.20;;;29.20;48.10;;;;;;1901046;73;21107;-71
2022/01/05 10:00:54;;;;;;;14.55;9.80;;;29.10;48.60;;;;;;1912873;73;21128;-71
2022/01/05 10:03:26;;;;;;;16.70;10.55;;;29.10;49.20;;;;;;1918147;74;21370;-72
2022/01/05 10:05:57;;;;;;;15.15;9.78;;;29.00;48.80;;;;;;1928546;73;21225;-70
2022/01/05 10:08:28;;;;;;;14.60;8.80;;;28.90;49.00;;;;;;1914348;73;21139;-71
2022/01/05 10:10:59;;;;;;;13.98;8.38;;;28.90;49.00;;;;;;1926157;73;21095;-72
2022/01/05 10:13:29;;;;;;;10.28;7.75;;;28.90;49.60;;;;;;1920431;74;21133;-72
2022/01/05 10:16:01;;;;;;;12.45;7.55;;;28.80;49.70;;;;;;1921809;73;21213;-71
2022/01/05 10:18:34;;;;;;;14.00;9.43;;;28.80;49.30;;;;;;1907891;73;21209;-71
2022/01/05 10:21:06;;;;;;;18.55;11.00;;;28.70;50.00;;;;;;1896571;73;21571;-72
2022/01/05 10:23:41;;;;;;;12.40;8.08;;;28.70;50.40;;;;;;1918155;73;21141;-72
2022/01/05 10:26:14;;;;;;;16.20;10.63;;;28.70;50.90;;;;;;1915778;73;21594;-73
2022/01/05 10:28:46;;;;;;;17.23;8.10;;;28.60;51.00;;;;;;1907504;74;21779;-72
2022/01/05 10:31:19;;;;;;;15.23;8.88;;;28.60;51.60;;;;;;1912562;73;21171;-72
2022/01/05 10:33:51;;;;;;;27.87;8.98;;;28.50;51.80;;;;;;1906887;74;21226;-72
2022/01/05 10:36:23;;;;;;;13.45;7.75;;;28.50;52.00;;;;;;1917014;74;21138;-71
2022/01/05 10:38:56;;;;;;;14.73;7.72;;;28.40;52.80;;;;;;1915906;73;21187;-70
2022/01/05 10:41:31;;;;;;;12.35;7.97;;;28.30;53.00;;;;;;1928261;73;21072;-70
2022/01/05 10:44:03;;;;;;;17.92;9.50;;;28.20;52.80;;;;;;1932242;73;21709;-70
2022/01/05 10:46:36;;;;;;;16.50;9.10;;;28.10;53.10;;;;;;1921230;73;21223;-70
2022/01/05 10:49:08;;;;;;;16.82;9.55;;;28.10;53.30;;;;;;1917010;73;21617;-71
2022/01/05 10:51:39;;;;;;;14.50;8.95;;;28.00;53.10;;;;;;1871174;75;21158;-72
2022/01/05 10:54:12;;;;;;;20.35;9.20;;;27.90;53.10;;;;;;1853554;76;21258;-71
2022/01/05 10:56:43;;;;;;;17.35;10.23;;;27.90;53.50;;;;;;1912597;73;21602;-72
2022/01/05 10:59:15;;;;;;;22.07;10.75;;;27.80;53.40;;;;;;1937416;73;21197;-70
2022/01/05 11:01:46;;;;;;;17.73;10.58;;;27.70;53.50;;;;;;1946532;73;21143;-70
2022/01/05 11:04:20;;;;;;;15.72;11.20;;;27.70;53.90;;;;;;1920519;73;21222;-71
2022/01/05 11:06:54;;;;;;;18.82;11.05;;;27.70;53.90;;;;;;1887659;75;21240;-69
2022/01/05 11:09:25;;;;;;;20.35;11.90;;;27.60;54.30;;;;;;1926890;72;21637;-68
2022/01/05 11:12:00;;;;;;;19.55;11.57;;;27.50;54.80;;;;;;1919305;73;21181;-70
2022/01/05 11:14:34;;;;;;;23.80;11.40;;;27.50;55.10;;;;;;1917725;73;21200;-70
2022/01/05 11:17:06;;;;;;;18.95;11.88;;;27.40;55.50;;;;;;1917011;74;21236;-69
2022/01/05 11:19:38;;;;;;;22.30;12.30;;;27.30;56.20;;;;;;1914494;74;21633;-69
2022/01/05 11:22:13;;;;;;;29.02;13.70;;;27.30;55.50;;;;;;1906974;73;21511;-69
2022/01/05 11:24:46;;;;;;;20.60;12.43;;;27.20;55.80;;;;;;1907249;74;21694;-68
2022/01/05 11:27:19;;;;;;;24.20;11.57;;;27.20;55.80;;;;;;1920172;73;21166;-70
2022/01/05 11:29:50;;;;;;;20.12;12.47;;;27.20;55.90;;;;;;1911387;74;21846;-69
2022/01/05 11:32:25;;;;;;;17.82;12.53;;;27.10;55.80;;;;;;1924255;73;21136;-69
2022/01/05 11:34:56;;;;;;;23.90;13.03;;;27.10;56.10;;;;;;1924921;73;21151;-69
2022/01/05 11:37:27;;;;;;;24.72;12.85;;;27.10;56.50;;;;;;1941671;73;21536;-69
2022/01/05 11:39:59;;;;;;;20.12;12.07;;;27.00;56.70;;;;;;1925765;73;21178;-69
2022/01/05 11:42:32;;;;;;;22.93;11.80;;;27.00;56.90;;;;;;1914281;73;21072;-69
2022/01/05 11:45:05;;;;;;;20.45;12.03;;;27.00;57.00;;;;;;1936562;73;21229;-70
2022/01/05 11:47:38;;;;;;;22.95;13.15;;;26.90;57.10;;;;;;1945564;73;21193;-70
2022/01/05 11:50:11;;;;;;;29.63;12.95;;;26.90;57.40;;;;;;1915057;74;21139;-70
2022/01/05 11:52:45;;;;;;;23.62;11.65;;;26.90;57.60;;;;;;1937944;73;21634;-70
2022/01/05 11:55:18;;;;;;;20.48;12.25;;;26.90;57.20;;;;;;1920230;73;21130;-70
2022/01/05 11:57:50;;;;;;;22.87;12.30;;;26.80;58.00;;;;;;1927649;73;21165;-68
2022/01/05 12:00:22;;;;;;;18.95;11.57;;;26.80;58.00;;;;;;1883908;74;21758;-70
2022/01/05 12:02:52;;;;;;;23.57;12.28;;;26.80;57.90;;;;;;1921926;73;21160;-70
2022/01/05 12:05:24;;;;;;;23.40;12.28;;;26.70;57.70;;;;;;1944965;73;21177;-69
2022/01/05 12:07:55;;;;;;;27.62;16.23;;;26.70;57.80;;;;;;1926016;73;21192;-69
2022/01/05 12:10:30;;;;;;;25.05;14.83;;;26.70;58.20;;;;;;1944924;73;21104;-70
2022/01/05 12:13:02;;;;;;;27.52;13.98;;;26.70;58.30;;;;;;1934702;73;21103;-69
2022/01/05 12:15:35;;;;;;;33.48;16.82;;;26.60;58.60;;;;;;1931918;73;21221;-70
2022/01/05 12:18:06;;;;;;;32.08;18.48;;;26.60;59.50;;;;;;1919825;73;21214;-70
2022/01/05 12:20:39;;;;;;;34.88;18.48;;;26.60;59.50;;;;;;1920664;73;21237;-70
2022/01/05 12:23:13;;;;;;;35.33;18.30;;;26.60;59.50;;;;;;1923140;73;21080;-70
2022/01/05 12:25:46;;;;;;;28.02;17.82;;;26.60;59.40;;;;;;1926422;73;21180;-70
2022/01/05 12:28:19;;;;;;;27.73;16.30;;;26.60;59.10;;;;;;1929465;73;21585;-70
2022/01/05 12:30:51;;;;;;;32.03;16.17;;;26.60;59.30;;;;;;1885863;75;21554;-71
2022/01/05 12:33:22;;;;;;;29.00;16.00;;;26.60;59.40;;;;;;1915193;73;21783;-89
2022/01/05 12:35:55;;;;;;;29.25;15.35;;;26.60;59.30;;;;;;1924006;73;21492;-86
2022/01/05 12:38:28;;;;;;;28.10;15.93;;;26.60;59.40;;;;;;1923780;73;21143;-82
2022/01/05 12:40:59;;;;;;;27.40;14.85;;;26.60;59.20;;;;;;1914617;73;21711;-82
2022/01/05 12:43:34;;;;;;;32.38;15.85;;;26.60;59.20;;;;;;1925507;73;21560;-83
2022/01/05 12:46:08;;;;;;;23.90;15.23;;;26.60;58.90;;;;;;1927389;73;21601;-82
2022/01/05 12:48:40;;;;;;;27.65;15.72;;;26.60;59.10;;;;;;1920995;74;21084;-82
2022/01/05 12:51:13;;;;;;;26.45;14.83;;;26.70;59.30;;;;;;1924885;73;21211;-82
2022/01/05 12:53:47;;;;;;;25.25;15.00;;;26.70;59.50;;;;;;1938640;73;21098;-82
2022/01/05 12:56:20;;;;;;;32.08;16.40;;;26.60;59.80;;;;;;1907399;73;21122;-82
2022/01/05 12:58:52;;;;;;;26.75;17.48;;;26.50;59.80;;;;;;1942510;73;21804;-82
2022/01/05 13:01:24;;;;;;;33.40;16.73;;;26.50;59.80;;;;;;1931256;74;21155;-81
2022/01/05 13:03:57;;;;;;;30.80;17.02;;;26.40;60.00;;;;;;1919969;73;21102;-82